Flight Track Log - Related Links

Times and Time Zones

All times are in EDT time to prevent confusion due to time zone crossing. See the N27XP flight status page for this flight to view local times or setup timezone preferences in your user account.

Time Position Orientation Groundspeed Altitude Reporting Facility
EDT Latitude Longitude Course Direction KTS MPH feet Rate Location/Type
Mon 08:52:17 35.1772 -79.4722 227° Southwest 194 223 4,100  Level Washington Center
Mon 08:53:16 35.1353 -79.5361 231° Southwest 229 264 6,800 2,571 Climbing Washington Center
Mon 08:54:16 35.0956 -79.6028 234° Southwest 247 284 9,200 2,352 Climbing Washington Center
Mon 08:56:12 35.0067 -79.7322 230° Southwest 256 295 13,700 2,318 Climbing Jacksonville Center
Mon 08:57:00 34.9080 -79.8636 227° Southwest  Level FlightAware Approximate
Mon 08:57:12 34.9606 -79.8075 233° Southwest 267 307 16,000  Level Jacksonville Center
Mon 08:58:12 34.9122 -79.8800 231° Southwest 274 315 17,800 1,000 Climbing Jacksonville Center
Mon 08:59:12 34.8558 -79.9631 230° Southwest 297 342 18,000 550 Climbing Jacksonville Center
Mon 09:00:12 34.7914 -80.0664 233° Southwest 328 377 18,900 1,000 Climbing Jacksonville Center
Mon 09:01:12 34.7289 -80.1594 231° Southwest 351 404 20,000 550 Climbing Jacksonville Center
Mon 09:02:12 34.6664 -80.2572 232° Southwest 362 417 20,000  Level Jacksonville Center
Mon 09:03:12 34.6142 -80.3597 238° Southwest 367 422 20,000  Level Jacksonville Center
Mon 09:04:12 34.5600 -80.4722 240° Southwest 375 432 20,000  Level Jacksonville Center
Mon 09:05:12 34.5017 -80.5872 238° Southwest 388 447 20,000  Level Jacksonville Center
Mon 09:06:12 34.4411 -80.7022 237° Southwest 402 463 20,000  Level Jacksonville Center
Mon 09:07:12 34.3867 -80.8142 240° Southwest 403 464 20,000  Level Jacksonville Center
Mon 09:08:12 34.3383 -80.9136 240° Southwest 403 464 20,000  Level Jacksonville Center
Mon 09:09:12 34.2775 -81.0381 239° Southwest 397 457 20,000  Level Jacksonville Center
Mon 09:10:12 34.2311 -81.1319 239° Southwest 389 448 20,000  Level Jacksonville Center
Mon 09:11:12 34.1719 -81.2486 239° Southwest 389 448 20,000  Level Jacksonville Center
Mon 09:12:12 34.1172 -81.3600 239° Southwest 394 453 20,000  Level Jacksonville Center
Mon 09:13:12 34.0622 -81.4714 239° Southwest 394 453 20,000  Level Jacksonville Center
Mon 09:15:30 33.9208 -81.7408 238° Southwest 397 457 20,000  Level Atlanta Center
Mon 09:16:30 33.8750 -81.8569 245° Southwest 397 457 20,000  Level Atlanta Center
Mon 09:17:30 33.8711 -81.9872 268° West 387 445 20,000  Level Atlanta Center
Mon 09:18:30 33.8794 -82.1197 274° West 388 447 20,000  Level Atlanta Center
Mon 09:19:30 33.8897 -82.2469 276° West 388 447 20,000  Level Atlanta Center
Mon 09:20:30 33.8956 -82.3694 273° West 401 461 20,000  Level Atlanta Center
Mon 09:21:30 33.9036 -82.5019 274° West 401 461 20,000 -50 Level Atlanta Center
Mon 09:22:30 33.9094 -82.6344 273° West 401 461 19,900 -900 Descending Atlanta Center
Mon 09:23:30 33.9169 -82.7697 274° West 401 461 18,200 -1,700 Descending Atlanta Center
Mon 09:24:30 33.9225 -82.9047 273° West 401 461 16,500 -1,900 Descending Atlanta Center
Mon 09:25:30 33.9300 -83.0447 274° West 395 455 14,400 -2,050 Descending Atlanta Center
Mon 09:26:30 33.9394 -83.1675 275° West 382 440 12,400 -1,850 Descending Atlanta Center
Mon 09:27:30 33.9422 -83.2825 272° West 363 418 10,700 -2,000 Descending Atlanta Center
Mon 09:28:30 33.9489 -83.3778 275° West 344 396 8,400 -2,100 Descending Atlanta Center
Mon 09:29:30 33.9558 -83.4703 275° West 311 358 6,500 -1,700 Descending Atlanta Center
Mon 09:30:30 33.9625 -83.5706 275° West 279 321 5,000 -750 Descending Atlanta Center
Mon 09:31:30 33.9689 -83.6556 275° West 264 304 5,000  Level Atlanta Center
Mon 09:32:30 33.9775 -83.7356 277° West 256 295 5,000  Level Atlanta Center
Mon 09:34:24 33.9833 -83.8833 273° West 241 277 5,000  Level Atlanta TRACON
Mon 09:35:24 34.0000 -83.9667 284° West 237 273 5,000  Level Atlanta TRACON
Mon 09:36:24 34.0000 -84.0500 270° West 242 278 5,000 -100 Level Atlanta TRACON
Mon 09:37:24 34.0000 -84.1167 270° West 242 278 4,800 -474 Descending Atlanta TRACON
Mon 09:38:18 34.0000 -84.2000 270° West 239 275 4,100 -400 Descending Atlanta TRACON
Mon 09:39:24 34.0167 -84.2833 284° West 205 236 4,000 -48 Descending Atlanta TRACON
Mon 09:40:24 34.0167 -84.3500 270° West 183 211 4,000 -250 Level Atlanta TRACON
Mon 09:41:24 34.0167 -84.4000 270° West 183 211 3,500 -500 Descending Atlanta TRACON
Mon 09:42:24 34.0167 -84.4500 270° West 141 162 3,000 -550 Descending Atlanta TRACON
Mon 09:43:24 34.0167 -84.5000 270° West 126 145 2,400 -650 Descending Atlanta TRACON
Mon 09:44:24 34.0167 -84.5333 270° West 121 139 1,700 -700 Descending Atlanta TRACON

Login

Don't have an account? Register now (free) for customized features, flight alerts, and more!